sensor_id;sensor_type;location;lat;lon;timestamp;P1;durP1;ratioP1;P2;durP2;ratioP2
1154;SDS011;566;48.414;9.118;2022-07-11T00:02:09;8.93;;;2.50;;
1154;SDS011;566;48.414;9.118;2022-07-11T00:04:36;6.28;;;2.40;;
1154;SDS011;566;48.414;9.118;2022-07-11T00:07:04;5.45;;;2.50;;
1154;SDS011;566;48.414;9.118;2022-07-11T00:09:30;5.43;;;2.67;;
1154;SDS011;566;48.414;9.118;2022-07-11T00:11:56;7.53;;;2.55;;
1154;SDS011;566;48.414;9.118;2022-07-11T00:14:22;6.22;;;2.40;;
1154;SDS011;566;48.414;9.118;2022-07-11T00:16:49;5.78;;;2.40;;
1154;SDS011;566;48.414;9.118;2022-07-11T00:19:15;5.75;;;2.60;;
1154;SDS011;566;48.414;9.118;2022-07-11T00:21:41;6.00;;;2.55;;
1154;SDS011;566;48.414;9.118;2022-07-11T00:24:07;5.32;;;2.15;;
1154;SDS011;566;48.414;9.118;2022-07-11T00:26:36;4.97;;;2.28;;
1154;SDS011;566;48.414;9.118;2022-07-11T00:29:02;5.50;;;2.53;;
1154;SDS011;566;48.414;9.118;2022-07-11T00:31:29;4.88;;;2.30;;
1154;SDS011;566;48.414;9.118;2022-07-11T00:33:59;5.30;;;2.35;;
1154;SDS011;566;48.414;9.118;2022-07-11T00:36:24;6.07;;;2.55;;
1154;SDS011;566;48.414;9.118;2022-07-11T00:38:50;8.50;;;3.20;;
1154;SDS011;566;48.414;9.118;2022-07-11T00:41:16;7.60;;;2.40;;
1154;SDS011;566;48.414;9.118;2022-07-11T00:43:42;7.70;;;2.58;;
1154;SDS011;566;48.414;9.118;2022-07-11T00:46:08;6.43;;;2.45;;
1154;SDS011;566;48.414;9.118;2022-07-11T00:48:35;5.05;;;2.30;;
1154;SDS011;566;48.414;9.118;2022-07-11T00:51:04;6.78;;;2.83;;
1154;SDS011;566;48.414;9.118;2022-07-11T00:53:30;4.60;;;2.10;;
1154;SDS011;566;48.414;9.118;2022-07-11T00:55:57;6.47;;;2.50;;
1154;SDS011;566;48.414;9.118;2022-07-11T00:58:24;5.15;;;2.30;;
1154;SDS011;566;48.414;9.118;2022-07-11T01:00:51;6.13;;;2.35;;
1154;SDS011;566;48.414;9.118;2022-07-11T01:03:16;6.60;;;2.50;;
1154;SDS011;566;48.414;9.118;2022-07-11T01:05:42;6.90;;;2.38;;
1154;SDS011;566;48.414;9.118;2022-07-11T01:08:08;6.80;;;2.65;;
1154;SDS011;566;48.414;9.118;2022-07-11T01:10:36;6.10;;;3.15;;
1154;SDS011;566;48.414;9.118;2022-07-11T01:13:04;5.13;;;2.30;;
1154;SDS011;566;48.414;9.118;2022-07-11T01:15:33;8.00;;;2.33;;
1154;SDS011;566;48.414;9.118;2022-07-11T01:18:00;6.60;;;2.40;;
1154;SDS011;566;48.414;9.118;2022-07-11T01:20:26;4.80;;;2.50;;
1154;SDS011;566;48.414;9.118;2022-07-11T01:22:53;4.93;;;2.60;;
1154;SDS011;566;48.414;9.118;2022-07-11T01:25:21;5.30;;;2.35;;
1154;SDS011;566;48.414;9.118;2022-07-11T01:27:59;6.78;;;2.80;;
1154;SDS011;566;48.414;9.118;2022-07-11T01:30:26;8.13;;;2.80;;
1154;SDS011;566;48.414;9.118;2022-07-11T01:32:54;9.70;;;2.63;;
1154;SDS011;566;48.414;9.118;2022-07-11T01:35:20;5.43;;;2.20;;
1154;SDS011;566;48.414;9.118;2022-07-11T01:37:46;6.55;;;2.45;;
1154;SDS011;566;48.414;9.118;2022-07-11T01:40:12;5.15;;;2.40;;
1154;SDS011;566;48.414;9.118;2022-07-11T01:42:38;5.00;;;2.53;;
1154;SDS011;566;48.414;9.118;2022-07-11T01:45:04;6.57;;;2.40;;
1154;SDS011;566;48.414;9.118;2022-07-11T01:47:30;8.35;;;2.50;;
1154;SDS011;566;48.414;9.118;2022-07-11T01:49:56;4.25;;;2.35;;
1154;SDS011;566;48.414;9.118;2022-07-11T01:52:21;5.78;;;2.17;;
1154;SDS011;566;48.414;9.118;2022-07-11T01:54:51;5.45;;;2.70;;
1154;SDS011;566;48.414;9.118;2022-07-11T01:57:16;5.40;;;2.00;;
1154;SDS011;566;48.414;9.118;2022-07-11T01:59:42;5.13;;;2.53;;
1154;SDS011;566;48.414;9.118;2022-07-11T02:02:07;6.07;;;2.45;;
1154;SDS011;566;48.414;9.118;2022-07-11T02:04:33;5.53;;;3.47;;
1154;SDS011;566;48.414;9.118;2022-07-11T02:06:59;5.93;;;2.50;;
1154;SDS011;566;48.414;9.118;2022-07-11T02:09:24;5.30;;;2.47;;
1154;SDS011;566;48.414;9.118;2022-07-11T02:11:50;6.65;;;2.40;;
1154;SDS011;566;48.414;9.118;2022-07-11T02:14:16;4.93;;;2.22;;
1154;SDS011;566;48.414;9.118;2022-07-11T02:16:42;5.55;;;2.45;;
1154;SDS011;566;48.414;9.118;2022-07-11T02:19:07;5.15;;;2.67;;
1154;SDS011;566;48.414;9.118;2022-07-11T02:21:35;4.78;;;2.30;;
1154;SDS011;566;48.414;9.118;2022-07-11T02:24:01;6.00;;;2.38;;
1154;SDS011;566;48.414;9.118;2022-07-11T02:26:27;4.57;;;2.20;;
1154;SDS011;566;48.414;9.118;2022-07-11T02:28:53;4.63;;;2.20;;
1154;SDS011;566;48.414;9.118;2022-07-11T02:31:21;5.30;;;2.78;;
1154;SDS011;566;48.414;9.118;2022-07-11T02:33:47;4.88;;;2.30;;
1154;SDS011;566;48.414;9.118;2022-07-11T02:36:13;7.68;;;2.42;;
1154;SDS011;566;48.414;9.118;2022-07-11T02:38:39;4.70;;;2.40;;
1154;SDS011;566;48.414;9.118;2022-07-11T02:41:05;6.88;;;3.15;;
1154;SDS011;566;48.414;9.118;2022-07-11T02:43:30;5.78;;;2.30;;
1154;SDS011;566;48.414;9.118;2022-07-11T02:45:56;8.15;;;2.58;;
1154;SDS011;566;48.414;9.118;2022-07-11T02:48:22;4.75;;;2.50;;
1154;SDS011;566;48.414;9.118;2022-07-11T02:50:48;5.50;;;2.22;;
1154;SDS011;566;48.414;9.118;2022-07-11T02:53:14;5.93;;;2.30;;
1154;SDS011;566;48.414;9.118;2022-07-11T02:55:39;8.55;;;2.53;;
1154;SDS011;566;48.414;9.118;2022-07-11T02:58:05;5.05;;;2.40;;
1154;SDS011;566;48.414;9.118;2022-07-11T03:00:31;6.57;;;2.60;;
1154;SDS011;566;48.414;9.118;2022-07-11T03:02:57;4.93;;;2.65;;
1154;SDS011;566;48.414;9.118;2022-07-11T03:05:23;5.88;;;2.45;;
1154;SDS011;566;48.414;9.118;2022-07-11T03:07:49;6.80;;;2.50;;
1154;SDS011;566;48.414;9.118;2022-07-11T03:10:15;6.55;;;2.50;;
1154;SDS011;566;48.414;9.118;2022-07-11T03:12:41;6.63;;;3.35;;
1154;SDS011;566;48.414;9.118;2022-07-11T03:15:07;5.68;;;2.75;;
1154;SDS011;566;48.414;9.118;2022-07-11T03:17:33;6.03;;;2.78;;
1154;SDS011;566;48.414;9.118;2022-07-11T03:20:01;6.40;;;2.92;;
1154;SDS011;566;48.414;9.118;2022-07-11T03:22:27;4.03;;;2.42;;
1154;SDS011;566;48.414;9.118;2022-07-11T03:24:53;6.95;;;2.85;;
1154;SDS011;566;48.414;9.118;2022-07-11T03:27:18;4.43;;;2.65;;
1154;SDS011;566;48.414;9.118;2022-07-11T03:29:45;4.78;;;2.92;;
1154;SDS011;566;48.414;9.118;2022-07-11T03:32:11;4.60;;;2.70;;
1154;SDS011;566;48.414;9.118;2022-07-11T03:34:37;5.13;;;2.80;;
1154;SDS011;566;48.414;9.118;2022-07-11T03:37:03;7.40;;;3.20;;
1154;SDS011;566;48.414;9.118;2022-07-11T03:39:28;6.70;;;2.85;;
1154;SDS011;566;48.414;9.118;2022-07-11T03:41:57;7.70;;;2.85;;
1154;SDS011;566;48.414;9.118;2022-07-11T03:44:26;8.70;;;2.90;;
1154;SDS011;566;48.414;9.118;2022-07-11T03:46:52;6.53;;;2.92;;
1154;SDS011;566;48.414;9.118;2022-07-11T03:49:17;5.25;;;2.78;;
1154;SDS011;566;48.414;9.118;2022-07-11T03:51:46;8.63;;;3.63;;
1154;SDS011;566;48.414;9.118;2022-07-11T03:54:13;8.07;;;3.50;;
1154;SDS011;566;48.414;9.118;2022-07-11T03:56:38;6.35;;;3.40;;
1154;SDS011;566;48.414;9.118;2022-07-11T03:59:04;7.65;;;3.13;;
1154;SDS011;566;48.414;9.118;2022-07-11T04:01:30;6.32;;;3.00;;
1154;SDS011;566;48.414;9.118;2022-07-11T04:03:55;5.85;;;3.10;;
1154;SDS011;566;48.414;9.118;2022-07-11T04:06:21;5.50;;;2.90;;
1154;SDS011;566;48.414;9.118;2022-07-11T04:08:47;6.15;;;3.30;;
1154;SDS011;566;48.414;9.118;2022-07-11T04:11:15;7.10;;;3.40;;
1154;SDS011;566;48.414;9.118;2022-07-11T04:13:41;5.45;;;3.17;;
1154;SDS011;566;48.414;9.118;2022-07-11T04:16:07;5.78;;;3.08;;
1154;SDS011;566;48.414;9.118;2022-07-11T04:18:32;5.45;;;3.70;;
1154;SDS011;566;48.414;9.118;2022-07-11T04:20:58;6.88;;;3.70;;
1154;SDS011;566;48.414;9.118;2022-07-11T04:23:27;7.20;;;3.80;;
1154;SDS011;566;48.414;9.118;2022-07-11T04:25:53;6.32;;;4.00;;
1154;SDS011;566;48.414;9.118;2022-07-11T04:28:19;8.52;;;3.90;;
1154;SDS011;566;48.414;9.118;2022-07-11T04:30:44;6.82;;;3.90;;
1154;SDS011;566;48.414;9.118;2022-07-11T04:33:10;7.65;;;3.80;;
1154;SDS011;566;48.414;9.118;2022-07-11T04:35:36;7.10;;;3.70;;
1154;SDS011;566;48.414;9.118;2022-07-11T04:38:01;10.15;;;4.35;;
1154;SDS011;566;48.414;9.118;2022-07-11T04:40:27;7.18;;;3.60;;
1154;SDS011;566;48.414;9.118;2022-07-11T04:42:55;6.65;;;4.22;;
1154;SDS011;566;48.414;9.118;2022-07-11T04:45:21;6.55;;;4.03;;
1154;SDS011;566;48.414;9.118;2022-07-11T04:47:47;8.35;;;4.97;;
1154;SDS011;566;48.414;9.118;2022-07-11T04:50:13;6.38;;;4.07;;
1154;SDS011;566;48.414;9.118;2022-07-11T04:52:38;7.03;;;4.32;;
1154;SDS011;566;48.414;9.118;2022-07-11T04:55:06;9.32;;;4.85;;
1154;SDS011;566;48.414;9.118;2022-07-11T04:57:32;8.35;;;4.40;;
1154;SDS011;566;48.414;9.118;2022-07-11T04:59:57;7.78;;;4.07;;
1154;SDS011;566;48.414;9.118;2022-07-11T05:02:23;7.38;;;4.40;;
1154;SDS011;566;48.414;9.118;2022-07-11T05:04:49;7.38;;;4.38;;
1154;SDS011;566;48.414;9.118;2022-07-11T05:07:15;5.50;;;4.10;;
1154;SDS011;566;48.414;9.118;2022-07-11T05:09:40;7.35;;;4.03;;
1154;SDS011;566;48.414;9.118;2022-07-11T05:12:06;7.28;;;4.05;;
1154;SDS011;566;48.414;9.118;2022-07-11T05:14:33;6.70;;;3.95;;
1154;SDS011;566;48.414;9.118;2022-07-11T05:16:58;6.22;;;3.60;;
1154;SDS011;566;48.414;9.118;2022-07-11T05:19:25;5.43;;;3.58;;
1154;SDS011;566;48.414;9.118;2022-07-11T05:21:50;6.28;;;3.90;;
1154;SDS011;566;48.414;9.118;2022-07-11T05:24:16;6.63;;;3.22;;
1154;SDS011;566;48.414;9.118;2022-07-11T05:26:43;6.25;;;3.60;;
1154;SDS011;566;48.414;9.118;2022-07-11T05:29:09;7.47;;;3.53;;
1154;SDS011;566;48.414;9.118;2022-07-11T05:31:35;6.88;;;3.72;;
1154;SDS011;566;48.414;9.118;2022-07-11T05:34:04;7.28;;;3.20;;
1154;SDS011;566;48.414;9.118;2022-07-11T05:36:30;4.45;;;2.50;;
1154;SDS011;566;48.414;9.118;2022-07-11T05:38:56;5.78;;;2.42;;
1154;SDS011;566;48.414;9.118;2022-07-11T05:41:22;5.15;;;2.20;;
1154;SDS011;566;48.414;9.118;2022-07-11T05:43:48;7.13;;;2.85;;
1154;SDS011;566;48.414;9.118;2022-07-11T05:46:16;6.80;;;2.20;;
1154;SDS011;566;48.414;9.118;2022-07-11T05:48:41;6.28;;;2.40;;
1154;SDS011;566;48.414;9.118;2022-07-11T05:51:07;5.38;;;2.30;;
1154;SDS011;566;48.414;9.118;2022-07-11T05:53:33;6.75;;;2.40;;
1154;SDS011;566;48.414;9.118;2022-07-11T05:56:01;5.57;;;2.47;;
1154;SDS011;566;48.414;9.118;2022-07-11T05:58:27;5.95;;;3.08;;
1154;SDS011;566;48.414;9.118;2022-07-11T06:00:52;6.18;;;2.38;;
1154;SDS011;566;48.414;9.118;2022-07-11T06:03:18;4.28;;;2.00;;
1154;SDS011;566;48.414;9.118;2022-07-11T06:05:44;6.88;;;2.47;;
1154;SDS011;566;48.414;9.118;2022-07-11T06:08:09;4.93;;;2.50;;
1154;SDS011;566;48.414;9.118;2022-07-11T06:13:20;6.45;;;2.90;;
1154;SDS011;566;48.414;9.118;2022-07-11T06:15:46;5.85;;;2.50;;
1154;SDS011;566;48.414;9.118;2022-07-11T06:18:12;7.93;;;2.80;;
1154;SDS011;566;48.414;9.118;2022-07-11T06:20:37;7.63;;;3.05;;
1154;SDS011;566;48.414;9.118;2022-07-11T06:23:03;5.93;;;2.60;;
1154;SDS011;566;48.414;9.118;2022-07-11T06:25:31;6.57;;;2.60;;
1154;SDS011;566;48.414;9.118;2022-07-11T06:27:57;7.38;;;2.90;;
1154;SDS011;566;48.414;9.118;2022-07-11T06:30:22;4.95;;;2.50;;
1154;SDS011;566;48.414;9.118;2022-07-11T06:32:48;8.48;;;2.58;;
1154;SDS011;566;48.414;9.118;2022-07-11T06:35:14;7.97;;;3.92;;
1154;SDS011;566;48.414;9.118;2022-07-11T06:37:39;6.55;;;3.67;;
1154;SDS011;566;48.414;9.118;2022-07-11T06:40:05;6.65;;;4.05;;
1154;SDS011;566;48.414;9.118;2022-07-11T06:42:35;6.40;;;4.13;;
1154;SDS011;566;48.414;9.118;2022-07-11T06:45:02;6.70;;;4.47;;
1154;SDS011;566;48.414;9.118;2022-07-11T06:47:27;5.65;;;3.53;;
1154;SDS011;566;48.414;9.118;2022-07-11T06:49:53;8.75;;;3.95;;
1154;SDS011;566;48.414;9.118;2022-07-11T06:52:21;7.70;;;3.90;;
1154;SDS011;566;48.414;9.118;2022-07-11T06:54:47;5.07;;;3.42;;
1154;SDS011;566;48.414;9.118;2022-07-11T06:57:12;8.10;;;4.07;;
1154;SDS011;566;48.414;9.118;2022-07-11T06:59:38;5.70;;;3.88;;
1154;SDS011;566;48.414;9.118;2022-07-11T07:02:04;8.45;;;3.92;;
1154;SDS011;566;48.414;9.118;2022-07-11T07:04:30;7.32;;;3.95;;
1154;SDS011;566;48.414;9.118;2022-07-11T07:06:56;6.95;;;3.95;;
1154;SDS011;566;48.414;9.118;2022-07-11T07:09:23;6.55;;;3.83;;
1154;SDS011;566;48.414;9.118;2022-07-11T07:11:49;6.88;;;3.95;;
1154;SDS011;566;48.414;9.118;2022-07-11T07:14:15;6.20;;;3.67;;
1154;SDS011;566;48.414;9.118;2022-07-11T07:16:40;6.43;;;3.40;;
1154;SDS011;566;48.414;9.118;2022-07-11T07:19:06;8.10;;;3.90;;
1154;SDS011;566;48.414;9.118;2022-07-11T07:21:31;8.02;;;4.20;;
1154;SDS011;566;48.414;9.118;2022-07-11T07:23:57;5.25;;;3.20;;
1154;SDS011;566;48.414;9.118;2022-07-11T07:26:23;6.72;;;3.33;;
1154;SDS011;566;48.414;9.118;2022-07-11T07:28:48;6.35;;;3.35;;
1154;SDS011;566;48.414;9.118;2022-07-11T07:31:17;4.47;;;3.05;;
1154;SDS011;566;48.414;9.118;2022-07-11T07:33:43;5.40;;;3.40;;
1154;SDS011;566;48.414;9.118;2022-07-11T07:36:11;5.38;;;2.90;;
1154;SDS011;566;48.414;9.118;2022-07-11T07:38:37;5.75;;;3.05;;
1154;SDS011;566;48.414;9.118;2022-07-11T07:41:04;4.72;;;2.80;;
1154;SDS011;566;48.414;9.118;2022-07-11T07:43:29;5.47;;;2.58;;
1154;SDS011;566;48.414;9.118;2022-07-11T07:45:55;5.65;;;2.30;;
1154;SDS011;566;48.414;9.118;2022-07-11T07:48:21;4.95;;;2.40;;
1154;SDS011;566;48.414;9.118;2022-07-11T07:50:46;6.82;;;3.13;;
1154;SDS011;566;48.414;9.118;2022-07-11T07:53:12;5.28;;;2.40;;
1154;SDS011;566;48.414;9.118;2022-07-11T07:55:38;3.72;;;1.80;;
1154;SDS011;566;48.414;9.118;2022-07-11T07:58:03;3.72;;;1.88;;
1154;SDS011;566;48.414;9.118;2022-07-11T08:00:29;5.35;;;2.10;;
1154;SDS011;566;48.414;9.118;2022-07-11T08:05:38;4.05;;;1.90;;
1154;SDS011;566;48.414;9.118;2022-07-11T08:08:04;3.10;;;1.52;;
1154;SDS011;566;48.414;9.118;2022-07-11T08:10:30;4.22;;;1.70;;
1154;SDS011;566;48.414;9.118;2022-07-11T08:12:56;4.80;;;1.70;;
1154;SDS011;566;48.414;9.118;2022-07-11T08:15:21;4.95;;;1.70;;
1154;SDS011;566;48.414;9.118;2022-07-11T08:17:47;24.52;;;3.55;;
1154;SDS011;566;48.414;9.118;2022-07-11T08:20:13;7.88;;;1.90;;
1154;SDS011;566;48.414;9.118;2022-07-11T08:22:38;3.75;;;1.70;;
1154;SDS011;566;48.414;9.118;2022-07-11T08:25:05;5.85;;;1.50;;
1154;SDS011;566;48.414;9.118;2022-07-11T08:27:31;3.95;;;1.10;;
1154;SDS011;566;48.414;9.118;2022-07-11T08:29:57;3.33;;;1.02;;
1154;SDS011;566;48.414;9.118;2022-07-11T08:32:23;1.83;;;0.95;;
1154;SDS011;566;48.414;9.118;2022-07-11T08:34:49;3.03;;;1.20;;
1154;SDS011;566;48.414;9.118;2022-07-11T08:37:15;2.47;;;1.25;;
1154;SDS011;566;48.414;9.118;2022-07-11T08:39:43;1.98;;;0.95;;
1154;SDS011;566;48.414;9.118;2022-07-11T08:42:09;2.75;;;0.75;;
1154;SDS011;566;48.414;9.118;2022-07-11T08:44:35;1.70;;;0.90;;
1154;SDS011;566;48.414;9.118;2022-07-11T08:47:02;2.15;;;1.00;;
1154;SDS011;566;48.414;9.118;2022-07-11T08:49:28;2.55;;;1.00;;
1154;SDS011;566;48.414;9.118;2022-07-11T08:51:57;2.75;;;1.10;;
1154;SDS011;566;48.414;9.118;2022-07-11T08:54:23;2.72;;;0.80;;
1154;SDS011;566;48.414;9.118;2022-07-11T08:56:49;2.35;;;0.70;;
1154;SDS011;566;48.414;9.118;2022-07-11T08:59:17;1.58;;;0.70;;
1154;SDS011;566;48.414;9.118;2022-07-11T09:01:45;3.42;;;0.77;;
1154;SDS011;566;48.414;9.118;2022-07-11T09:04:11;0.93;;;0.60;;
1154;SDS011;566;48.414;9.118;2022-07-11T09:06:39;1.92;;;0.68;;
1154;SDS011;566;48.414;9.118;2022-07-11T09:09:04;1.48;;;0.73;;
1154;SDS011;566;48.414;9.118;2022-07-11T09:11:50;2.00;;;0.70;;
1154;SDS011;566;48.414;9.118;2022-07-11T09:14:21;1.33;;;0.70;;
1154;SDS011;566;48.414;9.118;2022-07-11T09:16:51;0.63;;;0.43;;
1154;SDS011;566;48.414;9.118;2022-07-11T09:19:22;4.13;;;0.70;;
1154;SDS011;566;48.414;9.118;2022-07-11T09:21:55;3.92;;;0.70;;
1154;SDS011;566;48.414;9.118;2022-07-11T09:24:53;11.10;;;1.35;;
1154;SDS011;566;48.414;9.118;2022-07-11T09:28:03;6.25;;;1.30;;
1154;SDS011;566;48.414;9.118;2022-07-11T09:30:35;38.92;;;4.63;;
1154;SDS011;566;48.414;9.118;2022-07-11T09:33:11;6.70;;;1.63;;
1154;SDS011;566;48.414;9.118;2022-07-11T09:35:40;2.83;;;0.87;;
1154;SDS011;566;48.414;9.118;2022-07-11T09:38:08;2.72;;;0.93;;
1154;SDS011;566;48.414;9.118;2022-07-11T09:40:36;2.10;;;0.90;;
1154;SDS011;566;48.414;9.118;2022-07-11T09:43:03;2.25;;;0.70;;
1154;SDS011;566;48.414;9.118;2022-07-11T09:45:30;5.43;;;1.23;;
1154;SDS011;566;48.414;9.118;2022-07-11T09:47:59;6.13;;;1.20;;
1154;SDS011;566;48.414;9.118;2022-07-11T09:50:32;1.08;;;0.70;;
1154;SDS011;566;48.414;9.118;2022-07-11T09:53:02;3.10;;;0.88;;
1154;SDS011;566;48.414;9.118;2022-07-11T09:55:38;2.33;;;0.85;;
1154;SDS011;566;48.414;9.118;2022-07-11T09:58:09;3.50;;;0.70;;
1154;SDS011;566;48.414;9.118;2022-07-11T10:00:37;1.73;;;0.70;;
1154;SDS011;566;48.414;9.118;2022-07-11T10:03:04;2.83;;;0.75;;
1154;SDS011;566;48.414;9.118;2022-07-11T10:05:31;1.50;;;0.70;;
1154;SDS011;566;48.414;9.118;2022-07-11T10:07:57;0.98;;;0.60;;
1154;SDS011;566;48.414;9.118;2022-07-11T10:10:24;1.63;;;0.60;;
1154;SDS011;566;48.414;9.118;2022-07-11T10:12:51;1.75;;;0.60;;
1154;SDS011;566;48.414;9.118;2022-07-11T10:26:23;0.50;;;0.50;;
1154;SDS011;566;48.414;9.118;2022-07-11T10:28:57;0.70;;;0.60;;
1154;SDS011;566;48.414;9.118;2022-07-11T10:31:27;1.30;;;0.52;;
1154;SDS011;566;48.414;9.118;2022-07-11T10:34:05;1.00;;;0.60;;
1154;SDS011;566;48.414;9.118;2022-07-11T10:36:33;2.55;;;0.55;;
1154;SDS011;566;48.414;9.118;2022-07-11T10:39:18;1.10;;;0.57;;
1154;SDS011;566;48.414;9.118;2022-07-11T10:41:50;1.83;;;0.52;;
1154;SDS011;566;48.414;9.118;2022-07-11T10:44:16;2.58;;;0.63;;
1154;SDS011;566;48.414;9.118;2022-07-11T10:46:42;1.25;;;0.43;;
1154;SDS011;566;48.414;9.118;2022-07-11T10:57:17;2.40;;;0.70;;
1154;SDS011;566;48.414;9.118;2022-07-11T11:16:44;0.75;;;0.60;;
1154;SDS011;566;48.414;9.118;2022-07-11T11:22:14;1.95;;;0.77;;
1154;SDS011;566;48.414;9.118;2022-07-11T11:24:44;0.90;;;0.70;;
1154;SDS011;566;48.414;9.118;2022-07-11T11:27:16;2.75;;;0.70;;
1154;SDS011;566;48.414;9.118;2022-07-11T11:29:46;1.60;;;0.88;;
1154;SDS011;566;48.414;9.118;2022-07-11T11:32:12;1.27;;;0.60;;
1154;SDS011;566;48.414;9.118;2022-07-11T11:34:38;1.65;;;0.80;;
1154;SDS011;566;48.414;9.118;2022-07-11T11:37:06;1.83;;;0.90;;
1154;SDS011;566;48.414;9.118;2022-07-11T11:39:33;1.08;;;0.68;;
1154;SDS011;566;48.414;9.118;2022-07-11T11:42:22;4.65;;;1.25;;
1154;SDS011;566;48.414;9.118;2022-07-11T11:44:57;1.92;;;0.77;;
1154;SDS011;566;48.414;9.118;2022-07-11T11:47:29;1.98;;;0.88;;
1154;SDS011;566;48.414;9.118;2022-07-11T11:49:56;3.03;;;1.30;;
1154;SDS011;566;48.414;9.118;2022-07-11T11:52:23;1.80;;;0.80;;
1154;SDS011;566;48.414;9.118;2022-07-11T11:54:53;1.17;;;0.70;;
1154;SDS011;566;48.414;9.118;2022-07-11T11:57:21;3.05;;;0.80;;
1154;SDS011;566;48.414;9.118;2022-07-11T11:59:49;1.70;;;0.80;;
1154;SDS011;566;48.414;9.118;2022-07-11T12:02:25;2.35;;;0.98;;
1154;SDS011;566;48.414;9.118;2022-07-11T12:04:53;1.40;;;0.73;;
1154;SDS011;566;48.414;9.118;2022-07-11T12:07:22;2.40;;;0.90;;
1154;SDS011;566;48.414;9.118;2022-07-11T12:09:50;2.20;;;0.90;;
1154;SDS011;566;48.414;9.118;2022-07-11T12:12:19;1.60;;;0.73;;
1154;SDS011;566;48.414;9.118;2022-07-11T12:15:05;2.42;;;1.02;;
1154;SDS011;566;48.414;9.118;2022-07-11T12:17:33;1.25;;;0.73;;
1154;SDS011;566;48.414;9.118;2022-07-11T12:20:00;2.78;;;0.85;;
1154;SDS011;566;48.414;9.118;2022-07-11T12:22:26;2.20;;;1.00;;
1154;SDS011;566;48.414;9.118;2022-07-11T12:24:52;2.20;;;0.90;;
1154;SDS011;566;48.414;9.118;2022-07-11T12:27:22;3.22;;;0.90;;
1154;SDS011;566;48.414;9.118;2022-07-11T12:29:49;1.55;;;0.70;;
1154;SDS011;566;48.414;9.118;2022-07-11T12:32:16;3.85;;;0.90;;
1154;SDS011;566;48.414;9.118;2022-07-11T12:34:44;3.28;;;0.77;;
1154;SDS011;566;48.414;9.118;2022-07-11T12:37:12;1.67;;;0.82;;
1154;SDS011;566;48.414;9.118;2022-07-11T12:39:46;1.20;;;0.70;;
1154;SDS011;566;48.414;9.118;2022-07-11T12:42:27;2.55;;;0.80;;
1154;SDS011;566;48.414;9.118;2022-07-11T12:47:29;1.88;;;0.90;;
1154;SDS011;566;48.414;9.118;2022-07-11T12:49:57;2.80;;;1.05;;
1154;SDS011;566;48.414;9.118;2022-07-11T12:52:23;4.70;;;0.90;;
1154;SDS011;566;48.414;9.118;2022-07-11T12:55:00;3.83;;;1.00;;
1154;SDS011;566;48.414;9.118;2022-07-11T12:57:26;3.17;;;1.00;;
1154;SDS011;566;48.414;9.118;2022-07-11T12:59:52;3.22;;;1.13;;
1154;SDS011;566;48.414;9.118;2022-07-11T13:02:17;5.55;;;1.17;;
1154;SDS011;566;48.414;9.118;2022-07-11T13:04:47;2.83;;;1.20;;
1154;SDS011;566;48.414;9.118;2022-07-11T13:10:17;2.45;;;0.80;;
1154;SDS011;566;48.414;9.118;2022-07-11T13:12:51;1.98;;;1.00;;
1154;SDS011;566;48.414;9.118;2022-07-11T13:15:18;3.50;;;1.00;;
1154;SDS011;566;48.414;9.118;2022-07-11T13:17:47;3.63;;;1.23;;
1154;SDS011;566;48.414;9.118;2022-07-11T13:20:17;4.10;;;1.35;;
1154;SDS011;566;48.414;9.118;2022-07-11T13:22:45;2.75;;;1.20;;
1154;SDS011;566;48.414;9.118;2022-07-11T13:25:16;2.17;;;1.02;;
1154;SDS011;566;48.414;9.118;2022-07-11T13:27:43;2.58;;;1.20;;
1154;SDS011;566;48.414;9.118;2022-07-11T13:30:10;4.05;;;1.05;;
1154;SDS011;566;48.414;9.118;2022-07-11T13:32:44;2.50;;;1.10;;
1154;SDS011;566;48.414;9.118;2022-07-11T13:35:12;2.55;;;1.00;;
1154;SDS011;566;48.414;9.118;2022-07-11T13:37:38;2.10;;;1.00;;
1154;SDS011;566;48.414;9.118;2022-07-11T13:40:06;2.70;;;1.00;;
1154;SDS011;566;48.414;9.118;2022-07-11T13:42:37;3.88;;;1.13;;
1154;SDS011;566;48.414;9.118;2022-07-11T13:45:05;2.35;;;1.15;;
1154;SDS011;566;48.414;9.118;2022-07-11T13:47:31;2.28;;;1.17;;
1154;SDS011;566;48.414;9.118;2022-07-11T13:49:58;2.15;;;1.00;;
1154;SDS011;566;48.414;9.118;2022-07-11T13:52:28;3.03;;;1.30;;
1154;SDS011;566;48.414;9.118;2022-07-11T13:54:54;5.47;;;1.40;;
1154;SDS011;566;48.414;9.118;2022-07-11T13:57:20;1.65;;;1.00;;
1154;SDS011;566;48.414;9.118;2022-07-11T13:59:46;1.67;;;0.93;;
1154;SDS011;566;48.414;9.118;2022-07-11T14:02:12;1.95;;;1.00;;
1154;SDS011;566;48.414;9.118;2022-07-11T14:04:38;1.75;;;1.00;;
1154;SDS011;566;48.414;9.118;2022-07-11T14:07:06;2.28;;;0.90;;
1154;SDS011;566;48.414;9.118;2022-07-11T14:09:32;2.40;;;1.15;;
1154;SDS011;566;48.414;9.118;2022-07-11T14:11:59;2.35;;;0.90;;
1154;SDS011;566;48.414;9.118;2022-07-11T14:14:25;2.47;;;0.98;;
1154;SDS011;566;48.414;9.118;2022-07-11T14:16:52;2.30;;;1.02;;
1154;SDS011;566;48.414;9.118;2022-07-11T14:19:18;1.60;;;0.90;;
1154;SDS011;566;48.414;9.118;2022-07-11T14:21:44;2.45;;;1.17;;
1154;SDS011;566;48.414;9.118;2022-07-11T14:24:10;2.80;;;1.15;;
1154;SDS011;566;48.414;9.118;2022-07-11T14:26:36;2.88;;;1.25;;
1154;SDS011;566;48.414;9.118;2022-07-11T14:29:03;3.13;;;1.08;;
1154;SDS011;566;48.414;9.118;2022-07-11T14:31:30;2.78;;;1.13;;
1154;SDS011;566;48.414;9.118;2022-07-11T14:33:56;2.45;;;1.10;;
1154;SDS011;566;48.414;9.118;2022-07-11T14:36:24;2.35;;;1.10;;
1154;SDS011;566;48.414;9.118;2022-07-11T14:38:50;3.20;;;1.38;;
1154;SDS011;566;48.414;9.118;2022-07-11T14:41:16;3.50;;;1.42;;
1154;SDS011;566;48.414;9.118;2022-07-11T14:43:42;3.42;;;1.30;;
1154;SDS011;566;48.414;9.118;2022-07-11T14:46:09;2.53;;;1.30;;
1154;SDS011;566;48.414;9.118;2022-07-11T14:48:35;2.90;;;1.27;;
1154;SDS011;566;48.414;9.118;2022-07-11T14:51:02;4.13;;;1.50;;
1154;SDS011;566;48.414;9.118;2022-07-11T14:53:28;3.42;;;1.50;;
1154;SDS011;566;48.414;9.118;2022-07-11T14:55:54;2.72;;;1.40;;
1154;SDS011;566;48.414;9.118;2022-07-11T14:58:19;4.05;;;1.50;;
1154;SDS011;566;48.414;9.118;2022-07-11T15:00:45;3.42;;;1.48;;
1154;SDS011;566;48.414;9.118;2022-07-11T15:03:11;2.50;;;1.20;;
1154;SDS011;566;48.414;9.118;2022-07-11T15:05:56;3.13;;;1.30;;
1154;SDS011;566;48.414;9.118;2022-07-11T15:08:23;4.45;;;1.30;;
1154;SDS011;566;48.414;9.118;2022-07-11T15:11:08;2.30;;;1.30;;
1154;SDS011;566;48.414;9.118;2022-07-11T15:13:53;3.45;;;1.38;;
1154;SDS011;566;48.414;9.118;2022-07-11T15:16:19;4.13;;;1.48;;
1154;SDS011;566;48.414;9.118;2022-07-11T15:18:48;3.70;;;1.40;;
1154;SDS011;566;48.414;9.118;2022-07-11T15:21:14;2.65;;;1.23;;
1154;SDS011;566;48.414;9.118;2022-07-11T15:23:40;2.78;;;1.30;;
1154;SDS011;566;48.414;9.118;2022-07-11T15:26:05;3.13;;;1.33;;
1154;SDS011;566;48.414;9.118;2022-07-11T15:28:31;3.92;;;1.20;;
1154;SDS011;566;48.414;9.118;2022-07-11T15:30:57;2.60;;;1.30;;
1154;SDS011;566;48.414;9.118;2022-07-11T15:33:23;2.40;;;1.10;;
1154;SDS011;566;48.414;9.118;2022-07-11T15:35:49;4.70;;;1.20;;
1154;SDS011;566;48.414;9.118;2022-07-11T15:38:17;3.03;;;1.20;;
1154;SDS011;566;48.414;9.118;2022-07-11T15:40:46;3.25;;;1.23;;
1154;SDS011;566;48.414;9.118;2022-07-11T15:43:13;2.55;;;1.27;;
1154;SDS011;566;48.414;9.118;2022-07-11T15:45:39;3.28;;;1.42;;
1154;SDS011;566;48.414;9.118;2022-07-11T15:48:06;2.70;;;1.00;;
1154;SDS011;566;48.414;9.118;2022-07-11T15:50:34;2.22;;;1.23;;
1154;SDS011;566;48.414;9.118;2022-07-11T15:53:00;2.63;;;1.30;;
1154;SDS011;566;48.414;9.118;2022-07-11T15:55:27;2.55;;;1.20;;
1154;SDS011;566;48.414;9.118;2022-07-11T15:57:53;2.80;;;1.30;;
1154;SDS011;566;48.414;9.118;2022-07-11T16:00:18;2.60;;;1.20;;
1154;SDS011;566;48.414;9.118;2022-07-11T16:02:46;4.72;;;1.50;;
1154;SDS011;566;48.414;9.118;2022-07-11T16:05:12;4.63;;;1.75;;
1154;SDS011;566;48.414;9.118;2022-07-11T16:07:39;5.47;;;1.40;;
1154;SDS011;566;48.414;9.118;2022-07-11T16:10:05;4.15;;;1.35;;
1154;SDS011;566;48.414;9.118;2022-07-11T16:12:31;2.38;;;1.20;;
1154;SDS011;566;48.414;9.118;2022-07-11T16:14:58;2.78;;;1.30;;
1154;SDS011;566;48.414;9.118;2022-07-11T16:17:24;6.32;;;1.50;;
1154;SDS011;566;48.414;9.118;2022-07-11T16:19:49;5.22;;;1.30;;
1154;SDS011;566;48.414;9.118;2022-07-11T16:22:15;3.65;;;1.30;;